Time;durP1;ratioP1;P1;durP2;ratioP2;P2;SDS_P1;SDS_P2;PMS_P1;PMS_P2;Temp;Humidity;BMP_temperature;BMP_pressure;BME280_temperature;BME280_humidity;BME280_pressure;Samples;Min_cycle;Max_cycle;Signal;HPM_P1;HPM_P2
2021/11/22 00:02:19;;;;;;;4.68;4.15;;;22.70;39.10;;;;;;5030084;28;20442;-69
2021/11/22 00:04:45;;;;;;;4.85;4.13;;;22.70;39.10;;;;;;5031663;28;20470;-70
2021/11/22 00:07:15;;;;;;;5.40;4.20;;;22.70;39.20;;;;;;5030259;28;20545;-70
2021/11/22 00:09:42;;;;;;;6.00;4.45;;;22.70;39.10;;;;;;5031516;28;20391;-69
2021/11/22 00:12:08;;;;;;;5.40;4.15;;;22.70;39.20;;;;;;5034417;28;20974;-69
2021/11/22 00:14:34;;;;;;;5.53;4.35;;;22.70;39.10;;;;;;5035470;28;20478;-69
2021/11/22 00:17:00;;;;;;;5.18;4.15;;;22.70;39.20;;;;;;5035274;28;20522;-70
2021/11/22 00:19:26;;;;;;;5.35;4.00;;;22.70;39.10;;;;;;5035224;28;20395;-69
2021/11/22 00:21:51;;;;;;;4.77;3.73;;;22.70;39.10;;;;;;5035256;28;20418;-69
2021/11/22 00:24:17;;;;;;;6.45;4.38;;;22.70;39.10;;;;;;5033857;28;20899;-69
2021/11/22 00:26:43;;;;;;;4.90;4.00;;;22.70;39.10;;;;;;5034829;28;20390;-70
2021/11/22 00:29:09;;;;;;;6.43;4.00;;;22.70;39.10;;;;;;5035166;28;20486;-70
2021/11/22 00:31:35;;;;;;;4.70;3.80;;;22.70;39.10;;;;;;5035090;28;20398;-70
2021/11/22 00:34:01;;;;;;;4.47;3.50;;;22.70;39.00;;;;;;5035163;28;20892;-69
2021/11/22 00:36:27;;;;;;;5.78;4.10;;;22.70;39.00;;;;;;5033840;28;20906;-70
2021/11/22 00:38:52;;;;;;;4.50;3.80;;;22.70;39.00;;;;;;5033501;28;20395;-69
2021/11/22 00:41:18;;;;;;;5.53;3.70;;;22.70;39.00;;;;;;5034582;28;20664;-70
2021/11/22 00:43:43;;;;;;;5.40;3.65;;;22.80;39.00;;;;;;5034943;28;20387;-69
2021/11/22 00:46:09;;;;;;;5.13;3.70;;;22.70;38.90;;;;;;5033684;28;20395;-70
2021/11/22 00:48:35;;;;;;;4.88;3.78;;;22.70;38.90;;;;;;5034562;28;20410;-69
2021/11/22 00:51:02;;;;;;;5.55;3.67;;;22.70;38.90;;;;;;5033484;28;20387;-69
2021/11/22 00:53:31;;;;;;;6.05;3.97;;;22.70;39.00;;;;;;5034817;28;20482;-70
2021/11/22 00:55:57;;;;;;;4.47;3.80;;;22.70;39.00;;;;;;5034589;28;20388;-70
2021/11/22 00:58:23;;;;;;;6.20;4.00;;;22.70;39.00;;;;;;5034649;28;20394;-69
2021/11/22 01:00:49;;;;;;;5.40;3.70;;;22.70;38.90;;;;;;5034674;28;20386;-70
2021/11/22 01:03:16;;;;;;;4.73;3.77;;;22.70;38.90;;;;;;5034561;28;20410;-70
2021/11/22 01:05:42;;;;;;;4.40;3.47;;;22.70;38.90;;;;;;5034482;28;20402;-70
2021/11/22 01:08:08;;;;;;;5.85;3.60;;;22.70;38.90;;;;;;5034343;28;20714;-70
2021/11/22 01:10:37;;;;;;;4.70;3.55;;;22.70;38.90;;;;;;5034429;28;20800;-70
2021/11/22 01:13:03;;;;;;;4.73;3.70;;;22.70;38.90;;;;;;5034226;28;20395;-70
2021/11/22 01:15:31;;;;;;;4.18;3.45;;;22.70;38.90;;;;;;5034383;28;20402;-70
2021/11/22 01:17:56;;;;;;;4.80;3.45;;;22.70;38.80;;;;;;5034228;28;20383;-70
2021/11/22 01:20:33;;;;;;;4.50;3.60;;;22.70;38.90;;;;;;5032611;28;20730;-70
2021/11/22 01:23:08;;;;;;;4.68;3.45;;;22.70;38.90;;;;;;5033474;28;20427;-70
2021/11/22 01:25:34;;;;;;;5.50;3.75;;;22.70;38.80;;;;;;5032798;28;20411;-70
2021/11/22 01:28:00;;;;;;;4.50;3.35;;;22.70;38.80;;;;;;5034142;28;20912;-70
2021/11/22 01:30:26;;;;;;;4.85;3.85;;;22.70;38.80;;;;;;5033972;28;20928;-70
2021/11/22 01:32:52;;;;;;;4.57;3.65;;;22.70;38.90;;;;;;5034034;28;20419;-70
2021/11/22 01:35:18;;;;;;;4.72;3.35;;;22.70;38.90;;;;;;5033840;28;20387;-69
2021/11/22 01:37:45;;;;;;;5.00;3.90;;;22.70;38.90;;;;;;5033911;28;20391;-69
2021/11/22 01:40:13;;;;;;;4.57;3.70;;;22.60;38.90;;;;;;5033790;28;20387;-69
2021/11/22 01:42:41;;;;;;;4.47;3.55;;;22.70;39.00;;;;;;5033480;28;20419;-70
2021/11/22 01:45:09;;;;;;;5.40;3.58;;;22.70;38.90;;;;;;5032804;28;20861;-69
2021/11/22 01:47:35;;;;;;;4.22;3.67;;;22.70;38.90;;;;;;5033625;28;20900;-70
2021/11/22 01:50:02;;;;;;;4.50;3.50;;;22.70;38.80;;;;;;5033307;28;20387;-70
2021/11/22 01:52:28;;;;;;;4.38;3.65;;;22.70;38.80;;;;;;5033620;28;20395;-70
2021/11/22 01:54:54;;;;;;;4.07;3.20;;;22.70;38.80;;;;;;5033641;28;20876;-69
2021/11/22 01:57:20;;;;;;;4.60;3.50;;;22.70;38.80;;;;;;5033558;28;20470;-70
2021/11/22 01:59:45;;;;;;;4.35;3.70;;;22.70;38.80;;;;;;5033443;28;20387;-70
2021/11/22 02:02:13;;;;;;;3.97;3.33;;;22.70;38.80;;;;;;5033434;28;20468;-70
2021/11/22 02:04:39;;;;;;;4.13;3.17;;;22.70;38.70;;;;;;5033450;28;20669;-70
2021/11/22 02:07:05;;;;;;;4.60;3.17;;;22.70;38.80;;;;;;5033365;28;20945;-69
2021/11/22 02:09:32;;;;;;;4.80;3.40;;;22.70;38.70;;;;;;5033396;28;20840;-69
2021/11/22 02:11:58;;;;;;;4.30;3.25;;;22.70;38.70;;;;;;5033256;28;20395;-70
2021/11/22 02:14:24;;;;;;;4.50;3.55;;;22.70;38.70;;;;;;5033144;28;20898;-70
2021/11/22 02:16:50;;;;;;;4.47;3.33;;;22.70;38.80;;;;;;5031762;28;20406;-70
2021/11/22 02:19:15;;;;;;;4.23;3.40;;;22.70;38.70;;;;;;5031891;28;20427;-70
2021/11/22 02:21:43;;;;;;;5.68;3.60;;;22.70;38.80;;;;;;5031712;28;20461;-69
2021/11/22 02:24:09;;;;;;;4.45;3.40;;;22.60;38.70;;;;;;5031660;28;20851;-70
2021/11/22 02:26:36;;;;;;;4.07;3.13;;;22.60;38.80;;;;;;5033065;28;20781;-69
2021/11/22 02:29:03;;;;;;;4.07;3.03;;;22.60;38.70;;;;;;5032953;28;20387;-70
2021/11/22 02:31:28;;;;;;;4.65;3.40;;;22.70;38.80;;;;;;5032920;28;20383;-69
2021/11/22 02:33:54;;;;;;;3.80;3.10;;;22.60;38.80;;;;;;5031984;28;20726;-69
2021/11/22 02:36:20;;;;;;;4.13;3.53;;;22.70;39.40;;;;;;5032824;28;20422;-69
2021/11/22 02:38:46;;;;;;;3.75;3.17;;;22.60;38.80;;;;;;5032920;28;20427;-69
2021/11/22 02:41:15;;;;;;;4.87;3.60;;;22.60;38.70;;;;;;5032684;28;20395;-70
2021/11/22 02:43:43;;;;;;;4.22;3.50;;;22.60;38.70;;;;;;5032389;28;20399;-70
2021/11/22 02:46:09;;;;;;;4.95;3.33;;;22.60;38.70;;;;;;5031822;28;20398;-70
2021/11/22 02:48:35;;;;;;;5.00;3.58;;;22.60;38.70;;;;;;5031412;28;20396;-69
2021/11/22 02:51:01;;;;;;;4.53;3.37;;;22.60;38.70;;;;;;5032533;28;20388;-70
2021/11/22 02:53:28;;;;;;;5.18;3.53;;;22.60;38.70;;;;;;5032421;28;20417;-70
2021/11/22 02:56:03;;;;;;;4.10;3.33;;;22.60;38.70;;;;;;5032405;28;20727;-70
2021/11/22 02:58:30;;;;;;;4.15;3.17;;;22.60;38.70;;;;;;5032394;28;20395;-70
2021/11/22 03:00:57;;;;;;;4.17;3.47;;;22.60;38.60;;;;;;5030854;28;20387;-70
2021/11/22 03:03:30;;;;;;;5.00;3.30;;;22.60;38.60;;;;;;5032383;28;20916;-70
2021/11/22 03:06:10;;;;;;;5.40;3.22;;;22.60;38.70;;;;;;5032144;28;20391;-70
2021/11/22 03:08:41;;;;;;;4.63;3.47;;;22.60;38.80;;;;;;5032297;28;20398;-70
2021/11/22 03:11:07;;;;;;;4.45;3.50;;;22.60;38.70;;;;;;5032021;28;20387;-70
2021/11/22 03:13:34;;;;;;;4.60;3.40;;;22.60;38.70;;;;;;5032151;28;20418;-70
2021/11/22 03:16:00;;;;;;;4.65;3.38;;;22.60;38.60;;;;;;5032039;28;20394;-70
2021/11/22 03:18:27;;;;;;;4.78;3.35;;;22.60;38.70;;;;;;5031962;28;20888;-70
2021/11/22 03:20:52;;;;;;;4.72;3.58;;;22.60;38.70;;;;;;5031956;28;20874;-70
2021/11/22 03:23:18;;;;;;;5.15;3.80;;;22.60;38.60;;;;;;5030781;28;20421;-70
2021/11/22 03:25:44;;;;;;;4.03;3.33;;;22.60;38.60;;;;;;5030576;28;20415;-70
2021/11/22 03:28:11;;;;;;;4.43;3.42;;;22.60;38.60;;;;;;5030680;28;20395;-70
2021/11/22 03:30:39;;;;;;;4.37;3.27;;;22.60;38.60;;;;;;5031894;28;20379;-70
2021/11/22 03:33:05;;;;;;;4.65;3.70;;;22.60;38.70;;;;;;5031966;28;20461;-70
2021/11/22 03:35:32;;;;;;;4.68;3.30;;;22.60;38.60;;;;;;5031916;28;20403;-70
2021/11/22 03:37:58;;;;;;;4.25;3.30;;;22.60;38.60;;;;;;5032004;28;20398;-70
2021/11/22 03:40:24;;;;;;;4.57;3.45;;;22.60;38.70;;;;;;5031830;28;20387;-70
2021/11/22 03:43:12;;;;;;;4.68;3.50;;;22.60;38.60;;;;;;5031586;28;20409;-69
2021/11/22 03:45:41;;;;;;;5.25;3.80;;;22.60;38.60;;;;;;5034709;28;20391;-70
2021/11/22 03:48:07;;;;;;;4.35;3.20;;;22.60;38.60;;;;;;5038362;28;20468;-70
2021/11/22 03:50:33;;;;;;;4.57;3.67;;;22.60;38.60;;;;;;5038415;28;20872;-70
2021/11/22 03:52:59;;;;;;;4.60;3.27;;;22.60;38.70;;;;;;5038346;28;20450;-70
2021/11/22 03:55:26;;;;;;;4.13;3.30;;;22.60;38.70;;;;;;5038263;28;20482;-70
2021/11/22 03:57:51;;;;;;;4.30;3.40;;;22.60;38.70;;;;;;5038226;28;20396;-70
2021/11/22 04:00:17;;;;;;;4.57;3.23;;;22.60;38.70;;;;;;5038355;28;20391;-70
2021/11/22 04:02:43;;;;;;;5.03;3.50;;;22.50;38.60;;;;;;5038190;28;20415;-70
2021/11/22 04:05:09;;;;;;;5.07;3.90;;;22.60;38.60;;;;;;5038222;28;20398;-69
2021/11/22 04:07:35;;;;;;;5.30;3.60;;;22.50;38.50;;;;;;5038240;28;20394;-69
2021/11/22 04:10:03;;;;;;;6.40;3.80;;;22.50;38.70;;;;;;5038118;28;20390;-69
2021/11/22 04:12:28;;;;;;;5.95;3.80;;;22.50;38.80;;;;;;5039008;28;20390;-70
2021/11/22 04:14:54;;;;;;;7.50;5.77;;;22.60;38.90;;;;;;5038024;28;20907;-70
2021/11/22 04:17:20;;;;;;;6.75;4.47;;;22.70;40.50;;;;;;5038039;28;20395;-70
2021/11/22 04:19:46;;;;;;;7.27;4.90;;;22.60;40.10;;;;;;5038015;28;20390;-69
2021/11/22 04:22:12;;;;;;;7.80;4.60;;;22.70;40.00;;;;;;5037811;28;20418;-69
2021/11/22 04:24:39;;;;;;;8.60;4.40;;;22.70;41.20;;;;;;5036796;28;20501;-69
2021/11/22 04:27:08;;;;;;;7.13;4.30;;;22.80;41.30;;;;;;5038023;28;20387;-69
2021/11/22 04:29:33;;;;;;;7.68;4.50;;;22.80;41.20;;;;;;5037830;28;20387;-70
2021/11/22 04:31:59;;;;;;;8.60;4.40;;;22.80;41.00;;;;;;5037915;28;20433;-69
2021/11/22 04:34:25;;;;;;;8.70;4.50;;;22.80;40.70;;;;;;5038019;28;20778;-70
2021/11/22 04:36:51;;;;;;;8.95;4.68;;;22.80;41.10;;;;;;5037918;28;20390;-69
2021/11/22 04:39:17;;;;;;;10.10;4.60;;;22.90;41.10;;;;;;5037866;28;20390;-70
2021/11/22 04:41:43;;;;;;;7.35;4.25;;;22.90;41.90;;;;;;5037724;28;20406;-69
2021/11/22 04:44:09;;;;;;;7.03;4.28;;;22.90;41.50;;;;;;5037847;28;20399;-70
2021/11/22 04:46:35;;;;;;;9.13;4.17;;;23.00;41.90;;;;;;5037476;28;20441;-70
2021/11/22 04:49:01;;;;;;;9.15;4.25;;;23.00;41.40;;;;;;5037343;28;20889;-70
2021/11/22 04:51:26;;;;;;;9.57;4.70;;;23.00;41.50;;;;;;5036075;28;20406;-70
2021/11/22 04:53:52;;;;;;;6.10;4.28;;;23.00;41.50;;;;;;5037576;28;20391;-70
2021/11/22 04:56:18;;;;;;;9.40;4.30;;;23.00;41.20;;;;;;5037114;28;20500;-69
2021/11/22 04:58:44;;;;;;;9.30;4.53;;;23.00;41.10;;;;;;5033986;28;20383;-70
2021/11/22 05:01:09;;;;;;;6.80;4.00;;;23.00;41.30;;;;;;5034483;28;20403;-70
2021/11/22 05:03:35;;;;;;;5.95;3.90;;;23.00;41.70;;;;;;5034259;28;20741;-70
2021/11/22 05:06:01;;;;;;;6.93;4.00;;;23.00;41.20;;;;;;5034457;28;20383;-69
2021/11/22 05:08:26;;;;;;;7.95;4.10;;;23.00;41.00;;;;;;5034439;28;20585;-71
2021/11/22 05:10:52;;;;;;;7.63;3.55;;;22.90;40.70;;;;;;5034358;28;20379;-70
2021/11/22 05:13:19;;;;;;;7.40;3.90;;;22.90;40.80;;;;;;5032896;28;20912;-70
2021/11/22 05:15:46;;;;;;;10.70;4.10;;;22.90;40.60;;;;;;5034240;28;20395;-70
2021/11/22 05:18:12;;;;;;;8.82;4.20;;;22.90;40.90;;;;;;5034400;28;20454;-70
2021/11/22 05:20:40;;;;;;;13.57;4.30;;;22.90;41.20;;;;;;5032583;28;20395;-70
2021/11/22 05:23:06;;;;;;;11.32;5.00;;;22.90;41.60;;;;;;5064850;28;20921;-70
2021/11/22 05:25:33;;;;;;;10.73;4.50;;;22.90;41.90;;;;;;5033897;28;20414;-69
2021/11/22 05:27:59;;;;;;;10.07;4.03;;;22.90;41.30;;;;;;5033880;28;20397;-70
2021/11/22 05:30:25;;;;;;;7.13;3.72;;;22.90;41.10;;;;;;5031560;28;20400;-69
2021/11/22 05:32:56;;;;;;;11.13;4.20;;;22.90;40.70;;;;;;5032415;28;20876;-69
2021/11/22 05:35:22;;;;;;;8.63;4.28;;;22.90;40.40;;;;;;5033188;28;20403;-70
2021/11/22 05:37:48;;;;;;;8.65;3.83;;;22.90;40.20;;;;;;5032039;28;20395;-71
2021/11/22 05:40:13;;;;;;;10.50;4.00;;;22.90;39.90;;;;;;5032264;28;20441;-69
2021/11/22 05:42:39;;;;;;;7.55;4.07;;;22.90;39.80;;;;;;5032391;28;20426;-70
2021/11/22 05:45:05;;;;;;;8.40;3.60;;;22.90;40.30;;;;;;5033698;28;20419;-71
2021/11/22 05:47:31;;;;;;;5.55;3.83;;;22.90;40.00;;;;;;5033723;28;20390;-70
2021/11/22 05:50:04;;;;;;;8.00;3.60;;;22.90;40.40;;;;;;5033708;28;20757;-72
2021/11/22 05:52:30;;;;;;;7.10;3.90;;;23.00;39.60;;;;;;5033584;28;20825;-71
2021/11/22 05:54:56;;;;;;;6.93;3.90;;;23.00;40.60;;;;;;5033644;28;20391;-71
2021/11/22 05:57:23;;;;;;;9.50;4.30;;;23.00;40.50;;;;;;5033546;28;20394;-71
2021/11/22 05:59:49;;;;;;;13.43;4.40;;;23.00;40.50;;;;;;5033474;28;20438;-71
2021/11/22 06:02:15;;;;;;;9.35;4.07;;;22.90;40.50;;;;;;5033360;28;20813;-71
2021/11/22 06:04:41;;;;;;;9.53;4.10;;;22.90;39.50;;;;;;5033470;28;20426;-71
2021/11/22 06:07:07;;;;;;;10.15;4.20;;;22.90;39.50;;;;;;5033268;28;20485;-71
2021/11/22 06:09:33;;;;;;;8.65;3.95;;;22.90;39.40;;;;;;5033196;28;20422;-71
2021/11/22 06:11:58;;;;;;;8.52;3.80;;;22.90;39.30;;;;;;5033289;28;20391;-71
2021/11/22 06:14:24;;;;;;;12.33;4.00;;;22.80;39.10;;;;;;5033177;28;20391;-71
2021/11/22 06:16:50;;;;;;;8.55;4.15;;;22.80;38.90;;;;;;5032902;28;20490;-71
2021/11/22 06:19:16;;;;;;;6.27;3.57;;;22.90;38.90;;;;;;5033114;28;20387;-71
2021/11/22 06:21:41;;;;;;;8.60;3.65;;;22.80;38.70;;;;;;5033074;28;20433;-71
2021/11/22 06:24:07;;;;;;;7.17;3.70;;;22.80;39.20;;;;;;5032850;28;20414;-71
2021/11/22 06:26:34;;;;;;;9.05;3.72;;;22.80;38.60;;;;;;5032978;28;20437;-71
2021/11/22 06:28:59;;;;;;;7.03;3.58;;;22.80;38.40;;;;;;5031829;28;20809;-71
2021/11/22 06:31:25;;;;;;;5.90;3.65;;;22.80;38.30;;;;;;5032894;28;20887;-72
2021/11/22 06:33:51;;;;;;;5.63;3.63;;;22.80;38.30;;;;;;5031108;28;20414;-71
2021/11/22 06:36:17;;;;;;;5.40;3.53;;;22.80;38.30;;;;;;5032815;28;20463;-71
2021/11/22 06:38:43;;;;;;;9.02;3.53;;;22.80;38.30;;;;;;5032804;28;20897;-71
2021/11/22 06:41:08;;;;;;;6.70;3.73;;;22.80;38.20;;;;;;5032754;28;20422;-71
2021/11/22 06:43:34;;;;;;;6.35;3.70;;;22.80;38.30;;;;;;5032427;28;20387;-71
2021/11/22 06:46:00;;;;;;;5.50;3.40;;;22.80;38.20;;;;;;5031437;28;20399;-71
2021/11/22 06:48:26;;;;;;;5.10;3.80;;;22.80;38.20;;;;;;5032691;28;20462;-71
2021/11/22 06:50:51;;;;;;;4.97;3.40;;;22.80;38.20;;;;;;5032440;28;20398;-71
2021/11/22 06:53:21;;;;;;;5.78;3.60;;;22.80;38.10;;;;;;5031303;28;20399;-71
2021/11/22 06:55:51;;;;;;;5.40;3.43;;;22.80;38.20;;;;;;5031218;28;20897;-70
2021/11/22 06:58:17;;;;;;;4.95;3.35;;;22.80;38.20;;;;;;5026451;28;20937;-70
2021/11/22 07:00:43;;;;;;;6.40;3.88;;;22.70;38.10;;;;;;5032018;28;20402;-71
2021/11/22 07:03:08;;;;;;;6.33;3.80;;;22.80;38.00;;;;;;5032244;28;20419;-71
2021/11/22 07:05:34;;;;;;;7.07;3.67;;;22.70;38.20;;;;;;5032057;28;20473;-70
2021/11/22 07:08:00;;;;;;;8.57;3.70;;;22.70;38.20;;;;;;5031476;28;20406;-71
2021/11/22 07:10:26;;;;;;;6.30;3.50;;;22.70;38.20;;;;;;5032077;28;20390;-71
2021/11/22 07:12:53;;;;;;;6.20;3.90;;;22.70;38.00;;;;;;5030829;28;20911;-71
2021/11/22 07:15:21;;;;;;;5.67;3.50;;;22.80;38.30;;;;;;5032108;28;20839;-71
2021/11/22 07:17:49;;;;;;;5.57;3.75;;;22.80;38.30;;;;;;5032141;28;20538;-71
2021/11/22 07:20:14;;;;;;;5.63;3.55;;;22.70;38.20;;;;;;5030323;28;20395;-71
2021/11/22 07:22:40;;;;;;;5.13;3.43;;;22.80;38.20;;;;;;5031968;28;20415;-71
2021/11/22 07:25:06;;;;;;;5.20;3.30;;;22.70;38.10;;;;;;5031851;28;20970;-72
2021/11/22 07:27:32;;;;;;;5.30;3.65;;;22.70;38.10;;;;;;5032087;28;20394;-71
2021/11/22 07:29:58;;;;;;;4.80;3.53;;;22.70;38.10;;;;;;5031970;28;20537;-72
2021/11/22 07:32:28;;;;;;;6.38;3.60;;;22.70;38.10;;;;;;5031965;28;20441;-71
2021/11/22 07:34:55;;;;;;;4.38;3.40;;;22.70;38.10;;;;;;5031916;28;20379;-71
2021/11/22 07:37:21;;;;;;;4.80;3.35;;;22.70;38.00;;;;;;5031653;28;20383;-72
2021/11/22 07:39:47;;;;;;;4.72;3.30;;;22.70;38.20;;;;;;5031854;28;20380;-71
2021/11/22 07:42:13;;;;;;;4.73;3.40;;;22.70;38.10;;;;;;5031747;28;20419;-71
2021/11/22 07:44:39;;;;;;;5.18;3.30;;;22.60;38.00;;;;;;5031587;28;20749;-71
2021/11/22 07:47:05;;;;;;;5.32;3.42;;;22.60;38.00;;;;;;5031779;28;20892;-71
2021/11/22 07:49:31;;;;;;;4.57;3.30;;;22.70;38.10;;;;;;5031921;28;20474;-72
2021/11/22 07:51:56;;;;;;;5.10;3.22;;;22.60;38.00;;;;;;5031750;28;20454;-71
2021/11/22 07:54:22;;;;;;;5.27;3.70;;;22.70;38.10;;;;;;5031672;28;20383;-71
2021/11/22 07:56:48;;;;;;;4.43;3.17;;;22.70;38.10;;;;;;5031613;28;20529;-72
2021/11/22 07:59:14;;;;;;;5.15;3.45;;;22.60;37.90;;;;;;5031682;28;20908;-71
2021/11/22 08:01:39;;;;;;;4.40;3.30;;;22.60;37.90;;;;;;5031565;28;20411;-71
2021/11/22 08:04:12;;;;;;;5.50;3.30;;;22.60;37.90;;;;;;5031606;28;20431;-71
2021/11/22 08:06:39;;;;;;;4.30;3.20;;;22.60;37.90;;;;;;5031669;28;20371;-71
2021/11/22 08:09:12;;;;;;;4.88;3.40;;;22.60;37.90;;;;;;5030320;28;20415;-71
2021/11/22 08:11:48;;;;;;;4.47;3.08;;;22.60;37.90;;;;;;5031641;28;20399;-71
2021/11/22 08:14:14;;;;;;;4.43;2.95;;;22.60;37.90;;;;;;5031572;28;20876;-71
2021/11/22 08:16:40;;;;;;;4.25;3.13;;;22.60;37.90;;;;;;5031526;28;20391;-71
2021/11/22 08:19:05;;;;;;;5.23;3.30;;;22.60;37.90;;;;;;5030199;28;20391;-72
2021/11/22 08:21:31;;;;;;;4.38;3.10;;;22.60;37.90;;;;;;5031382;28;20391;-71
2021/11/22 08:23:56;;;;;;;4.57;3.10;;;22.60;37.90;;;;;;5031238;28;20483;-71
2021/11/22 08:26:22;;;;;;;4.63;3.37;;;22.60;37.90;;;;;;5031476;28;20383;-71
2021/11/22 08:28:48;;;;;;;4.32;3.08;;;22.60;37.90;;;;;;5031245;28;20395;-71
2021/11/22 08:31:13;;;;;;;4.13;3.03;;;22.60;37.90;;;;;;5030779;28;20466;-71
2021/11/22 08:33:39;;;;;;;4.68;3.53;;;22.60;37.90;;;;;;5034086;28;20402;-71
2021/11/22 08:36:05;;;;;;;4.87;3.20;;;22.50;37.90;;;;;;5033905;28;20431;-72
2021/11/22 08:38:30;;;;;;;4.70;3.50;;;22.60;37.90;;;;;;5035055;28;20395;-71
2021/11/22 08:40:56;;;;;;;4.47;3.40;;;22.50;37.90;;;;;;5035077;28;20387;-71
2021/11/22 08:43:22;;;;;;;5.35;3.80;;;22.50;37.80;;;;;;5033643;28;20476;-71
2021/11/22 08:45:48;;;;;;;4.70;3.70;;;22.50;37.80;;;;;;5033488;28;20395;-71
2021/11/22 08:48:16;;;;;;;5.40;4.00;;;22.50;37.80;;;;;;5034951;28;20403;-71
2021/11/22 08:50:42;;;;;;;5.33;3.87;;;22.50;37.80;;;;;;5034800;28;20387;-71
2021/11/22 08:53:08;;;;;;;5.15;4.07;;;22.50;37.80;;;;;;5034747;28;20387;-72
2021/11/22 08:55:34;;;;;;;6.20;4.20;;;22.50;37.80;;;;;;5034740;28;20390;-71
2021/11/22 08:58:00;;;;;;;5.33;4.23;;;22.50;37.80;;;;;;5034522;28;21034;-71
2021/11/22 09:00:34;;;;;;;5.63;4.15;;;22.50;38.40;;;;;;5034651;28;20403;-72
2021/11/22 09:03:00;;;;;;;6.47;4.35;;;22.50;37.80;;;;;;5034478;28;20430;-71
2021/11/22 09:05:26;;;;;;;6.22;4.55;;;22.50;37.80;;;;;;5033326;28;20394;-71
2021/11/22 09:07:52;;;;;;;6.25;4.38;;;22.50;37.80;;;;;;5034440;28;20395;-71
2021/11/22 09:10:18;;;;;;;6.60;4.22;;;22.50;37.80;;;;;;5034534;28;20726;-71
2021/11/22 09:12:44;;;;;;;5.80;4.30;;;22.50;37.80;;;;;;5034404;28;20474;-71
2021/11/22 09:15:09;;;;;;;6.50;4.32;;;22.50;37.90;;;;;;5034387;28;20722;-72
2021/11/22 09:17:35;;;;;;;6.13;4.50;;;22.50;37.80;;;;;;5034471;28;20435;-72
2021/11/22 09:20:01;;;;;;;5.63;4.32;;;22.50;37.80;;;;;;5032987;28;20461;-71
2021/11/22 09:22:26;;;;;;;6.57;4.60;;;22.50;37.80;;;;;;5034069;28;20415;-72
2021/11/22 09:24:52;;;;;;;6.60;4.35;;;22.50;37.80;;;;;;5032567;28;20404;-72
2021/11/22 09:27:18;;;;;;;6.27;4.60;;;22.50;37.80;;;;;;5034139;28;20410;-71
2021/11/22 09:29:45;;;;;;;6.13;4.60;;;22.50;37.80;;;;;;5032279;28;20493;-71
2021/11/22 09:32:11;;;;;;;6.20;4.68;;;22.50;37.80;;;;;;5033889;28;20865;-71
2021/11/22 09:34:37;;;;;;;6.70;4.57;;;22.50;37.80;;;;;;5032852;28;20407;-71
2021/11/22 09:37:03;;;;;;;6.28;4.47;;;22.50;37.70;;;;;;5032608;28;20831;-72
2021/11/22 09:39:29;;;;;;;5.40;4.10;;;22.50;37.70;;;;;;5034057;28;20915;-72
2021/11/22 09:41:55;;;;;;;6.40;4.47;;;22.50;37.70;;;;;;5032287;28;20403;-72
2021/11/22 09:44:23;;;;;;;6.50;4.77;;;22.50;37.80;;;;;;5033378;28;20430;-71
2021/11/22 09:46:51;;;;;;;5.53;4.20;;;22.50;37.70;;;;;;5033401;28;20389;-71
2021/11/22 09:49:18;;;;;;;7.00;4.78;;;22.50;37.70;;;;;;5033841;28;20422;-72
2021/11/22 09:51:44;;;;;;;6.78;4.57;;;22.50;37.80;;;;;;5032219;28;20911;-71
2021/11/22 09:54:10;;;;;;;6.77;4.70;;;22.50;37.70;;;;;;5032475;28;20403;-71
2021/11/22 09:56:36;;;;;;;6.00;4.50;;;22.50;37.70;;;;;;5032340;28;20394;-71
2021/11/22 09:59:02;;;;;;;6.72;4.55;;;22.50;37.70;;;;;;5033414;28;20395;-71
2021/11/22 10:01:34;;;;;;;6.75;5.10;;;22.50;37.70;;;;;;5033235;28;20391;-72
2021/11/22 10:04:09;;;;;;;7.30;5.00;;;22.50;37.80;;;;;;5032081;28;20508;-71
2021/11/22 10:06:48;;;;;;;6.95;5.10;;;22.50;37.80;;;;;;5032224;28;20810;-71
2021/11/22 10:09:32;;;;;;;7.38;5.40;;;22.50;37.80;;;;;;5033507;28;20391;-71
2021/11/22 10:12:10;;;;;;;7.20;5.03;;;22.40;37.80;;;;;;5031989;28;20399;-72
2021/11/22 10:14:42;;;;;;;7.27;5.00;;;22.40;38.10;;;;;;5031869;28;20888;-71
2021/11/22 10:17:33;;;;;;;8.40;5.18;;;22.50;38.00;;;;;;5033225;28;20399;-71
2021/11/22 10:20:08;;;;;;;8.40;5.40;;;22.50;38.90;;;;;;5031864;28;20461;-71
2021/11/22 10:22:56;;;;;;;8.30;5.43;;;22.50;39.80;;;;;;5031942;28;20457;-71
2021/11/22 10:25:30;;;;;;;8.60;5.05;;;22.50;40.00;;;;;;5031686;28;20521;-71
2021/11/22 10:28:04;;;;;;;6.68;4.95;;;22.50;39.70;;;;;;5032972;28;20445;-70
2021/11/22 10:30:33;;;;;;;7.65;5.38;;;22.60;39.40;;;;;;5031515;28;20753;-71
2021/11/22 10:33:01;;;;;;;6.38;4.88;;;22.60;38.80;;;;;;5032769;28;20405;-70
2021/11/22 10:35:29;;;;;;;7.22;5.13;;;22.60;38.60;;;;;;5031592;28;20442;-70
2021/11/22 10:38:19;;;;;;;6.93;5.30;;;22.60;38.40;;;;;;5032715;28;20434;-70
2021/11/22 10:40:51;;;;;;;7.17;5.60;;;22.60;38.20;;;;;;5032764;28;20449;-70
2021/11/22 10:43:16;;;;;;;7.55;5.30;;;22.60;38.30;;;;;;5032569;28;20419;-70
2021/11/22 10:45:49;;;;;;;7.72;5.75;;;22.60;38.40;;;;;;5032369;28;20400;-70
2021/11/22 10:48:26;;;;;;;7.97;5.57;;;22.60;38.40;;;;;;5030896;28;20908;-70
2021/11/22 10:51:14;;;;;;;7.50;5.43;;;22.50;38.30;;;;;;5031049;28;20395;-70
2021/11/22 10:53:48;;;;;;;6.78;5.32;;;22.60;38.20;;;;;;5032512;28;20438;-71
2021/11/22 10:56:19;;;;;;;6.90;5.57;;;22.60;38.00;;;;;;5030229;28;20395;-71
2021/11/22 10:58:57;;;;;;;6.25;4.88;;;22.60;38.00;;;;;;5032509;28;20398;-71
2021/11/22 11:01:36;;;;;;;13.05;6.05;;;22.60;37.80;;;;;;5031136;28;20411;-71
2021/11/22 11:04:07;;;;;;;10.60;5.80;;;22.60;37.70;;;;;;5026664;28;20407;-70
2021/11/22 11:06:35;;;;;;;10.95;5.88;;;22.60;37.60;;;;;;5031186;28;20478;-71
2021/11/22 11:09:01;;;;;;;11.63;5.35;;;22.50;37.90;;;;;;5031218;28;20397;-71
2021/11/22 11:11:27;;;;;;;9.88;5.43;;;22.50;39.00;;;;;;5031048;28;20395;-71
2021/11/22 11:13:53;;;;;;;11.37;5.20;;;22.60;38.40;;;;;;5032297;28;20437;-71
2021/11/22 11:16:20;;;;;;;9.68;5.68;;;22.50;38.00;;;;;;5032165;28;20398;-70
2021/11/22 11:19:06;;;;;;;10.70;5.38;;;22.50;38.90;;;;;;5030940;28;20387;-71
2021/11/22 11:21:37;;;;;;;12.35;5.28;;;22.50;38.10;;;;;;5030792;28;20417;-70
2021/11/22 11:24:04;;;;;;;15.25;5.13;;;22.50;38.40;;;;;;5030508;28;20916;-71
2021/11/22 11:26:30;;;;;;;15.95;5.40;;;22.50;38.30;;;;;;5032117;28;20397;-71
2021/11/22 11:28:57;;;;;;;10.85;5.30;;;22.50;38.20;;;;;;5030722;28;20395;-71
2021/11/22 11:31:24;;;;;;;12.55;5.20;;;22.40;38.10;;;;;;5032025;28;20383;-71
2021/11/22 11:33:50;;;;;;;12.80;4.85;;;22.50;38.20;;;;;;5031763;28;20391;-70
2021/11/22 11:36:47;;;;;;;12.63;5.07;;;22.50;39.00;;;;;;5030796;28;20950;-71
2021/11/22 11:39:50;;;;;;;8.83;4.93;;;22.50;38.30;;;;;;5031918;28;20551;-70
2021/11/22 11:42:53;;;;;;;11.70;4.97;;;22.50;38.20;;;;;;5030441;28;20415;-71
2021/11/22 11:45:20;;;;;;;10.13;4.85;;;22.50;38.50;;;;;;5031612;28;20395;-71
2021/11/22 11:48:14;;;;;;;8.82;4.88;;;22.50;38.20;;;;;;5030621;28;20403;-71
2021/11/22 11:50:44;;;;;;;9.60;4.63;;;22.50;38.40;;;;;;5030211;28;20406;-71
2021/11/22 11:53:13;;;;;;;8.20;4.87;;;22.50;38.50;;;;;;5031254;28;20394;-71
2021/11/22 11:55:40;;;;;;;9.82;4.70;;;22.50;38.50;;;;;;5030542;28;20391;-72
2021/11/22 11:58:25;;;;;;;13.30;5.38;;;22.50;38.50;;;;;;5031735;28;20383;-70
2021/11/22 12:01:01;;;;;;;13.47;5.80;;;22.50;40.30;;;;;;5031708;28;20506;-71
2021/11/22 12:03:30;;;;;;;11.75;5.55;;;22.60;41.00;;;;;;5030294;28;20422;-71
2021/11/22 12:05:58;;;;;;;10.23;5.28;;;22.60;40.90;;;;;;5030580;28;20390;-70
2021/11/22 12:08:34;;;;;;;19.98;6.07;;;22.60;40.30;;;;;;5034482;28;20403;-71
2021/11/22 12:11:02;;;;;;;22.48;5.50;;;22.60;40.80;;;;;;5034043;28;20398;-71
2021/11/22 12:13:51;;;;;;;25.05;6.03;;;22.70;40.60;;;;;;5034236;28;20395;-70
2021/11/22 12:16:41;;;;;;;15.90;5.22;;;22.70;40.60;;;;;;5034258;28;20399;-69
2021/11/22 12:19:51;;;;;;;12.15;4.50;;;22.70;40.30;;;;;;5035499;28;20391;-68
2021/11/22 12:22:17;;;;;;;15.00;4.78;;;22.70;40.10;;;;;;5035992;28;20426;-70
2021/11/22 12:24:45;;;;;;;12.87;4.80;;;22.70;40.10;;;;;;5033918;28;20407;-67
2021/11/22 12:27:35;;;;;;;13.25;4.68;;;22.70;40.10;;;;;;5035359;28;20917;-68
2021/11/22 12:30:21;;;;;;;13.17;4.40;;;22.70;39.80;;;;;;5035910;28;20877;-66
2021/11/22 12:32:47;;;;;;;17.13;4.63;;;22.70;39.80;;;;;;5034934;28;20391;-66
2021/11/22 12:35:13;;;;;;;14.45;4.63;;;22.70;39.70;;;;;;5034542;28;20402;-68
2021/11/22 12:37:39;;;;;;;16.05;4.50;;;22.70;39.30;;;;;;5035493;28;20398;-68
2021/11/22 12:40:13;;;;;;;14.65;4.30;;;22.70;39.70;;;;;;5034988;28;20941;-67
2021/11/22 12:42:56;;;;;;;11.88;4.38;;;22.80;39.70;;;;;;5034902;28;20463;-67
2021/11/22 12:45:22;;;;;;;14.05;4.25;;;22.80;40.30;;;;;;5034945;28;20379;-67
2021/11/22 12:47:48;;;;;;;16.25;4.20;;;22.90;39.80;;;;;;5034811;28;20398;-67
2021/11/22 12:50:17;;;;;;;11.07;3.90;;;22.90;40.70;;;;;;5034907;28;20388;-67
2021/11/22 12:53:03;;;;;;;12.98;4.10;;;22.90;39.40;;;;;;5034610;28;20395;-64